sensor_id;sensor_type;location;lat;lon;timestamp;P1;durP1;ratioP1;P2;durP2;ratioP2
46729;SDS011;32476;50.002;11.854;2024-02-21T00:01:36;25.03;;;7.60;;
46729;SDS011;32476;50.002;11.854;2024-02-21T00:04:02;23.13;;;7.63;;
46729;SDS011;32476;50.002;11.854;2024-02-21T00:06:29;23.07;;;7.50;;
46729;SDS011;32476;50.002;11.854;2024-02-21T00:08:56;19.93;;;7.17;;
46729;SDS011;32476;50.002;11.854;2024-02-21T00:11:22;17.63;;;7.63;;
46729;SDS011;32476;50.002;11.854;2024-02-21T00:13:54;19.93;;;7.10;;
46729;SDS011;32476;50.002;11.854;2024-02-21T00:16:22;21.17;;;7.17;;
46729;SDS011;32476;50.002;11.854;2024-02-21T00:18:48;17.63;;;7.13;;
46729;SDS011;32476;50.002;11.854;2024-02-21T00:21:17;23.27;;;6.73;;
46729;SDS011;32476;50.002;11.854;2024-02-21T00:23:45;23.63;;;7.30;;
46729;SDS011;32476;50.002;11.854;2024-02-21T00:26:11;23.70;;;6.77;;
46729;SDS011;32476;50.002;11.854;2024-02-21T00:28:39;22.57;;;7.47;;
46729;SDS011;32476;50.002;11.854;2024-02-21T00:31:07;22.87;;;7.60;;
46729;SDS011;32476;50.002;11.854;2024-02-21T00:33:36;26.33;;;7.30;;
46729;SDS011;32476;50.002;11.854;2024-02-21T00:36:16;17.50;;;7.10;;
46729;SDS011;32476;50.002;11.854;2024-02-21T00:38:43;22.20;;;6.97;;
46729;SDS011;32476;50.002;11.854;2024-02-21T00:41:10;22.13;;;7.63;;
46729;SDS011;32476;50.002;11.854;2024-02-21T00:43:38;20.33;;;6.83;;
46729;SDS011;32476;50.002;11.854;2024-02-21T00:46:05;22.20;;;6.97;;
46729;SDS011;32476;50.002;11.854;2024-02-21T00:48:39;20.63;;;7.77;;
46729;SDS011;32476;50.002;11.854;2024-02-21T00:51:08;21.30;;;8.17;;
46729;SDS011;32476;50.002;11.854;2024-02-21T00:53:35;22.37;;;8.17;;
46729;SDS011;32476;50.002;11.854;2024-02-21T00:56:09;23.47;;;7.83;;
46729;SDS011;32476;50.002;11.854;2024-02-21T00:58:35;21.77;;;7.83;;
46729;SDS011;32476;50.002;11.854;2024-02-21T01:01:01;17.90;;;6.83;;
46729;SDS011;32476;50.002;11.854;2024-02-21T01:03:30;22.27;;;7.17;;
46729;SDS011;32476;50.002;11.854;2024-02-21T01:05:55;25.20;;;7.97;;
46729;SDS011;32476;50.002;11.854;2024-02-21T01:08:24;23.80;;;7.73;;
46729;SDS011;32476;50.002;11.854;2024-02-21T01:10:52;25.83;;;7.70;;
46729;SDS011;32476;50.002;11.854;2024-02-21T01:13:19;26.13;;;7.90;;
46729;SDS011;32476;50.002;11.854;2024-02-21T01:15:45;20.70;;;7.80;;
46729;SDS011;32476;50.002;11.854;2024-02-21T01:18:16;26.03;;;8.47;;
46729;SDS011;32476;50.002;11.854;2024-02-21T01:20:43;19.60;;;7.70;;
46729;SDS011;32476;50.002;11.854;2024-02-21T01:23:09;21.73;;;7.63;;
46729;SDS011;32476;50.002;11.854;2024-02-21T01:25:51;19.77;;;7.80;;
46729;SDS011;32476;50.002;11.854;2024-02-21T01:28:17;21.97;;;7.97;;
46729;SDS011;32476;50.002;11.854;2024-02-21T01:30:46;22.47;;;8.43;;
46729;SDS011;32476;50.002;11.854;2024-02-21T01:33:18;26.43;;;8.87;;
46729;SDS011;32476;50.002;11.854;2024-02-21T01:35:46;26.33;;;7.90;;
46729;SDS011;32476;50.002;11.854;2024-02-21T01:38:12;27.27;;;8.73;;
46729;SDS011;32476;50.002;11.854;2024-02-21T01:40:38;24.33;;;7.67;;
46729;SDS011;32476;50.002;11.854;2024-02-21T01:43:15;25.97;;;8.50;;
46729;SDS011;32476;50.002;11.854;2024-02-21T01:45:46;19.60;;;8.07;;
46729;SDS011;32476;50.002;11.854;2024-02-21T01:48:17;24.60;;;8.43;;
46729;SDS011;32476;50.002;11.854;2024-02-21T01:50:44;29.97;;;7.70;;
46729;SDS011;32476;50.002;11.854;2024-02-21T01:53:12;22.30;;;7.87;;
46729;SDS011;32476;50.002;11.854;2024-02-21T01:55:45;27.40;;;7.90;;
46729;SDS011;32476;50.002;11.854;2024-02-21T01:58:13;19.43;;;8.23;;
46729;SDS011;32476;50.002;11.854;2024-02-21T02:00:41;28.77;;;8.53;;
46729;SDS011;32476;50.002;11.854;2024-02-21T02:03:11;22.87;;;8.30;;
46729;SDS011;32476;50.002;11.854;2024-02-21T02:05:44;26.03;;;8.47;;
46729;SDS011;32476;50.002;11.854;2024-02-21T02:08:19;23.07;;;8.40;;
46729;SDS011;32476;50.002;11.854;2024-02-21T02:10:48;21.37;;;7.93;;
46729;SDS011;32476;50.002;11.854;2024-02-21T02:13:15;25.70;;;8.27;;
46729;SDS011;32476;50.002;11.854;2024-02-21T02:15:42;26.47;;;8.10;;
46729;SDS011;32476;50.002;11.854;2024-02-21T02:18:10;23.40;;;8.50;;
46729;SDS011;32476;50.002;11.854;2024-02-21T02:20:39;27.37;;;8.30;;
46729;SDS011;32476;50.002;11.854;2024-02-21T02:23:22;25.67;;;8.20;;
46729;SDS011;32476;50.002;11.854;2024-02-21T02:26:02;23.23;;;8.57;;
46729;SDS011;32476;50.002;11.854;2024-02-21T02:28:38;26.10;;;8.03;;
46729;SDS011;32476;50.002;11.854;2024-02-21T02:31:07;19.53;;;8.17;;
46729;SDS011;32476;50.002;11.854;2024-02-21T02:33:33;21.20;;;8.50;;
46729;SDS011;32476;50.002;11.854;2024-02-21T02:35:59;28.63;;;9.57;;
46729;SDS011;32476;50.002;11.854;2024-02-21T02:38:27;23.97;;;8.37;;
46729;SDS011;32476;50.002;11.854;2024-02-21T02:40:53;29.50;;;8.50;;
46729;SDS011;32476;50.002;11.854;2024-02-21T02:43:19;22.83;;;8.33;;
46729;SDS011;32476;50.002;11.854;2024-02-21T02:45:47;24.60;;;8.17;;
46729;SDS011;32476;50.002;11.854;2024-02-21T02:48:13;23.43;;;8.67;;
46729;SDS011;32476;50.002;11.854;2024-02-21T02:50:39;31.37;;;9.37;;
46729;SDS011;32476;50.002;11.854;2024-02-21T02:53:06;32.50;;;9.93;;
46729;SDS011;32476;50.002;11.854;2024-02-21T02:55:32;26.57;;;8.97;;
46729;SDS011;32476;50.002;11.854;2024-02-21T02:58:00;31.03;;;9.47;;
46729;SDS011;32476;50.002;11.854;2024-02-21T03:00:28;22.33;;;9.27;;
46729;SDS011;32476;50.002;11.854;2024-02-21T03:02:54;24.00;;;8.00;;
46729;SDS011;32476;50.002;11.854;2024-02-21T03:05:21;22.67;;;7.80;;
46729;SDS011;32476;50.002;11.854;2024-02-21T03:07:50;29.57;;;9.23;;
46729;SDS011;32476;50.002;11.854;2024-02-21T03:10:16;25.47;;;9.20;;
46729;SDS011;32476;50.002;11.854;2024-02-21T03:12:42;29.63;;;9.90;;
46729;SDS011;32476;50.002;11.854;2024-02-21T03:15:09;31.43;;;10.33;;
46729;SDS011;32476;50.002;11.854;2024-02-21T03:17:35;22.73;;;9.43;;
46729;SDS011;32476;50.002;11.854;2024-02-21T03:20:02;30.53;;;9.30;;
46729;SDS011;32476;50.002;11.854;2024-02-21T03:22:36;25.33;;;9.70;;
46729;SDS011;32476;50.002;11.854;2024-02-21T03:25:03;34.03;;;10.33;;
46729;SDS011;32476;50.002;11.854;2024-02-21T03:27:30;30.03;;;10.10;;
46729;SDS011;32476;50.002;11.854;2024-02-21T03:29:57;29.77;;;9.47;;
46729;SDS011;32476;50.002;11.854;2024-02-21T03:32:23;22.97;;;9.20;;
46729;SDS011;32476;50.002;11.854;2024-02-21T03:34:49;24.20;;;9.97;;
46729;SDS011;32476;50.002;11.854;2024-02-21T03:37:17;24.77;;;10.37;;
46729;SDS011;32476;50.002;11.854;2024-02-21T03:39:46;24.93;;;9.73;;
46729;SDS011;32476;50.002;11.854;2024-02-21T03:42:12;23.90;;;9.17;;
46729;SDS011;32476;50.002;11.854;2024-02-21T03:44:40;24.67;;;10.40;;
46729;SDS011;32476;50.002;11.854;2024-02-21T03:47:06;29.73;;;9.27;;
46729;SDS011;32476;50.002;11.854;2024-02-21T03:49:35;31.07;;;9.20;;
46729;SDS011;32476;50.002;11.854;2024-02-21T03:52:03;24.70;;;9.10;;
46729;SDS011;32476;50.002;11.854;2024-02-21T03:54:30;26.00;;;9.53;;
46729;SDS011;32476;50.002;11.854;2024-02-21T03:56:55;34.63;;;11.23;;
46729;SDS011;32476;50.002;11.854;2024-02-21T03:59:23;28.30;;;9.43;;
46729;SDS011;32476;50.002;11.854;2024-02-21T04:01:52;30.57;;;9.47;;
46729;SDS011;32476;50.002;11.854;2024-02-21T04:04:19;29.63;;;9.57;;
46729;SDS011;32476;50.002;11.854;2024-02-21T04:07:07;28.67;;;10.17;;
46729;SDS011;32476;50.002;11.854;2024-02-21T04:09:34;22.17;;;8.90;;
46729;SDS011;32476;50.002;11.854;2024-02-21T04:12:00;24.23;;;9.50;;
46729;SDS011;32476;50.002;11.854;2024-02-21T04:14:29;21.93;;;10.50;;
46729;SDS011;32476;50.002;11.854;2024-02-21T04:16:55;29.50;;;9.80;;
46729;SDS011;32476;50.002;11.854;2024-02-21T04:19:21;25.83;;;8.97;;
46729;SDS011;32476;50.002;11.854;2024-02-21T04:21:48;25.57;;;9.47;;
46729;SDS011;32476;50.002;11.854;2024-02-21T04:24:14;24.43;;;9.33;;
46729;SDS011;32476;50.002;11.854;2024-02-21T04:26:40;29.33;;;9.77;;
46729;SDS011;32476;50.002;11.854;2024-02-21T04:29:08;26.17;;;9.13;;
46729;SDS011;32476;50.002;11.854;2024-02-21T04:31:34;28.27;;;9.47;;
46729;SDS011;32476;50.002;11.854;2024-02-21T04:34:00;24.53;;;8.93;;
46729;SDS011;32476;50.002;11.854;2024-02-21T04:36:28;23.03;;;9.33;;
46729;SDS011;32476;50.002;11.854;2024-02-21T04:38:53;26.93;;;9.63;;
46729;SDS011;32476;50.002;11.854;2024-02-21T04:41:19;32.13;;;8.83;;
46729;SDS011;32476;50.002;11.854;2024-02-21T04:43:47;22.87;;;8.77;;
46729;SDS011;32476;50.002;11.854;2024-02-21T04:46:13;27.73;;;9.43;;
46729;SDS011;32476;50.002;11.854;2024-02-21T04:48:40;25.43;;;8.87;;
46729;SDS011;32476;50.002;11.854;2024-02-21T04:51:16;29.63;;;8.90;;
46729;SDS011;32476;50.002;11.854;2024-02-21T04:53:42;20.30;;;8.57;;
46729;SDS011;32476;50.002;11.854;2024-02-21T04:56:09;25.83;;;8.10;;
46729;SDS011;32476;50.002;11.854;2024-02-21T04:58:38;24.23;;;8.23;;
46729;SDS011;32476;50.002;11.854;2024-02-21T05:01:04;29.33;;;8.63;;
46729;SDS011;32476;50.002;11.854;2024-02-21T05:03:33;23.53;;;8.60;;
46729;SDS011;32476;50.002;11.854;2024-02-21T05:06:01;28.50;;;9.23;;
46729;SDS011;32476;50.002;11.854;2024-02-21T05:08:27;18.30;;;7.37;;
46729;SDS011;32476;50.002;11.854;2024-02-21T05:10:54;21.90;;;8.13;;
46729;SDS011;32476;50.002;11.854;2024-02-21T05:13:22;28.83;;;9.97;;
46729;SDS011;32476;50.002;11.854;2024-02-21T05:15:48;26.93;;;9.00;;
46729;SDS011;32476;50.002;11.854;2024-02-21T05:18:14;22.70;;;8.90;;
46729;SDS011;32476;50.002;11.854;2024-02-21T05:20:42;23.67;;;8.57;;
46729;SDS011;32476;50.002;11.854;2024-02-21T05:23:08;22.83;;;9.90;;
46729;SDS011;32476;50.002;11.854;2024-02-21T05:25:34;23.17;;;9.53;;
46729;SDS011;32476;50.002;11.854;2024-02-21T05:28:02;29.83;;;9.47;;
46729;SDS011;32476;50.002;11.854;2024-02-21T05:30:31;24.03;;;9.00;;
46729;SDS011;32476;50.002;11.854;2024-02-21T05:32:58;24.10;;;8.87;;
46729;SDS011;32476;50.002;11.854;2024-02-21T05:35:30;27.77;;;9.80;;
46729;SDS011;32476;50.002;11.854;2024-02-21T05:37:59;29.17;;;10.63;;
46729;SDS011;32476;50.002;11.854;2024-02-21T05:40:35;23.33;;;8.23;;
46729;SDS011;32476;50.002;11.854;2024-02-21T05:43:02;22.53;;;8.90;;
46729;SDS011;32476;50.002;11.854;2024-02-21T05:45:30;21.50;;;8.43;;
46729;SDS011;32476;50.002;11.854;2024-02-21T05:47:56;27.30;;;8.67;;
46729;SDS011;32476;50.002;11.854;2024-02-21T12:16:42;10.67;;;2.70;;
46729;SDS011;32476;50.002;11.854;2024-02-21T12:19:13;8.73;;;2.97;;
46729;SDS011;32476;50.002;11.854;2024-02-21T12:21:39;9.23;;;2.70;;
46729;SDS011;32476;50.002;11.854;2024-02-21T12:24:23;10.57;;;3.03;;
46729;SDS011;32476;50.002;11.854;2024-02-21T12:26:51;6.47;;;2.27;;
46729;SDS011;32476;50.002;11.854;2024-02-21T12:29:23;9.93;;;2.90;;
46729;SDS011;32476;50.002;11.854;2024-02-21T12:31:50;10.03;;;2.60;;
46729;SDS011;32476;50.002;11.854;2024-02-21T12:34:16;8.73;;;3.00;;
46729;SDS011;32476;50.002;11.854;2024-02-21T12:36:44;5.63;;;2.57;;
46729;SDS011;32476;50.002;11.854;2024-02-21T12:39:12;7.27;;;2.93;;
46729;SDS011;32476;50.002;11.854;2024-02-21T12:41:39;11.13;;;2.77;;
46729;SDS011;32476;50.002;11.854;2024-02-21T12:44:09;8.50;;;2.37;;
46729;SDS011;32476;50.002;11.854;2024-02-21T12:46:39;7.20;;;2.13;;
46729;SDS011;32476;50.002;11.854;2024-02-21T12:49:05;13.33;;;2.57;;
46729;SDS011;32476;50.002;11.854;2024-02-21T12:51:34;9.37;;;2.40;;
46729;SDS011;32476;50.002;11.854;2024-02-21T12:54:01;8.53;;;2.80;;
46729;SDS011;32476;50.002;11.854;2024-02-21T12:56:30;10.57;;;2.30;;
46729;SDS011;32476;50.002;11.854;2024-02-21T12:58:58;14.37;;;2.80;;
46729;SDS011;32476;50.002;11.854;2024-02-21T13:01:24;6.73;;;2.50;;
46729;SDS011;32476;50.002;11.854;2024-02-21T13:03:50;10.70;;;2.60;;
46729;SDS011;32476;50.002;11.854;2024-02-21T13:06:17;10.27;;;2.37;;
46729;SDS011;32476;50.002;11.854;2024-02-21T13:08:44;6.50;;;2.40;;
46729;SDS011;32476;50.002;11.854;2024-02-21T13:11:11;7.77;;;2.17;;
46729;SDS011;32476;50.002;11.854;2024-02-21T13:13:39;9.70;;;2.03;;
46729;SDS011;32476;50.002;11.854;2024-02-21T13:16:05;5.30;;;1.90;;
46729;SDS011;32476;50.002;11.854;2024-02-21T13:18:32;9.00;;;2.90;;
46729;SDS011;32476;50.002;11.854;2024-02-21T13:21:00;7.33;;;2.13;;
46729;SDS011;32476;50.002;11.854;2024-02-21T13:23:26;8.20;;;2.57;;
46729;SDS011;32476;50.002;11.854;2024-02-21T13:25:52;6.50;;;2.13;;
46729;SDS011;32476;50.002;11.854;2024-02-21T13:28:19;6.93;;;2.27;;
46729;SDS011;32476;50.002;11.854;2024-02-21T13:30:45;7.93;;;2.43;;
46729;SDS011;32476;50.002;11.854;2024-02-21T13:33:11;5.23;;;1.90;;
46729;SDS011;32476;50.002;11.854;2024-02-21T13:35:40;7.50;;;1.90;;
46729;SDS011;32476;50.002;11.854;2024-02-21T13:38:06;8.00;;;1.80;;
46729;SDS011;32476;50.002;11.854;2024-02-21T13:40:32;7.43;;;2.00;;
46729;SDS011;32476;50.002;11.854;2024-02-21T13:43:00;5.50;;;2.13;;
46729;SDS011;32476;50.002;11.854;2024-02-21T13:45:26;10.10;;;4.03;;
46729;SDS011;32476;50.002;11.854;2024-02-21T13:47:52;8.63;;;2.30;;
46729;SDS011;32476;50.002;11.854;2024-02-21T13:50:21;6.80;;;2.20;;
46729;SDS011;32476;50.002;11.854;2024-02-21T13:52:49;5.77;;;2.33;;
46729;SDS011;32476;50.002;11.854;2024-02-21T13:55:15;7.90;;;2.30;;
46729;SDS011;32476;50.002;11.854;2024-02-21T13:57:42;7.37;;;2.07;;
46729;SDS011;32476;50.002;11.854;2024-02-21T14:00:08;8.70;;;2.20;;
46729;SDS011;32476;50.002;11.854;2024-02-21T14:02:36;7.87;;;1.90;;
46729;SDS011;32476;50.002;11.854;2024-02-21T14:05:04;9.67;;;2.13;;
46729;SDS011;32476;50.002;11.854;2024-02-21T14:07:32;11.13;;;2.10;;
46729;SDS011;32476;50.002;11.854;2024-02-21T14:10:01;8.03;;;2.20;;
46729;SDS011;32476;50.002;11.854;2024-02-21T14:12:29;4.40;;;2.03;;
46729;SDS011;32476;50.002;11.854;2024-02-21T14:14:57;7.37;;;2.17;;
46729;SDS011;32476;50.002;11.854;2024-02-21T14:17:23;8.43;;;1.93;;
46729;SDS011;32476;50.002;11.854;2024-02-21T14:19:51;7.73;;;2.10;;
46729;SDS011;32476;50.002;11.854;2024-02-21T14:22:17;6.30;;;1.77;;
46729;SDS011;32476;50.002;11.854;2024-02-21T14:24:43;9.23;;;2.30;;
46729;SDS011;32476;50.002;11.854;2024-02-21T14:27:11;5.03;;;1.73;;
46729;SDS011;32476;50.002;11.854;2024-02-21T14:29:38;8.43;;;2.20;;
46729;SDS011;32476;50.002;11.854;2024-02-21T14:32:04;16.33;;;3.03;;
46729;SDS011;32476;50.002;11.854;2024-02-21T14:34:32;6.70;;;2.50;;
46729;SDS011;32476;50.002;11.854;2024-02-21T14:36:58;10.30;;;3.27;;
46729;SDS011;32476;50.002;11.854;2024-02-21T14:39:24;7.07;;;2.43;;
46729;SDS011;32476;50.002;11.854;2024-02-21T14:41:51;8.03;;;2.13;;
46729;SDS011;32476;50.002;11.854;2024-02-21T14:44:19;8.30;;;2.33;;
46729;SDS011;32476;50.002;11.854;2024-02-21T14:46:45;4.97;;;1.97;;
46729;SDS011;32476;50.002;11.854;2024-02-21T14:49:12;4.63;;;1.70;;
46729;SDS011;32476;50.002;11.854;2024-02-21T14:51:38;9.97;;;2.67;;
46729;SDS011;32476;50.002;11.854;2024-02-21T14:54:04;8.07;;;1.80;;
46729;SDS011;32476;50.002;11.854;2024-02-21T14:56:31;7.97;;;2.17;;
46729;SDS011;32476;50.002;11.854;2024-02-21T14:58:57;13.20;;;2.10;;
46729;SDS011;32476;50.002;11.854;2024-02-21T15:01:24;9.03;;;2.97;;
46729;SDS011;32476;50.002;11.854;2024-02-21T15:03:51;11.33;;;2.70;;
46729;SDS011;32476;50.002;11.854;2024-02-21T15:06:17;11.53;;;2.50;;
46729;SDS011;32476;50.002;11.854;2024-02-21T15:08:43;7.17;;;2.40;;
46729;SDS011;32476;50.002;11.854;2024-02-21T15:11:11;8.47;;;2.40;;
46729;SDS011;32476;50.002;11.854;2024-02-21T15:13:37;13.77;;;2.73;;
46729;SDS011;32476;50.002;11.854;2024-02-21T15:16:03;11.83;;;2.83;;
46729;SDS011;32476;50.002;11.854;2024-02-21T15:18:32;5.17;;;2.27;;
46729;SDS011;32476;50.002;11.854;2024-02-21T15:20:58;8.30;;;2.20;;
46729;SDS011;32476;50.002;11.854;2024-02-21T15:23:25;6.03;;;2.23;;
46729;SDS011;32476;50.002;11.854;2024-02-21T15:25:53;9.13;;;2.43;;
46729;SDS011;32476;50.002;11.854;2024-02-21T15:28:19;5.90;;;2.13;;
46729;SDS011;32476;50.002;11.854;2024-02-21T15:30:45;9.03;;;2.40;;
46729;SDS011;32476;50.002;11.854;2024-02-21T15:33:12;12.00;;;2.67;;
46729;SDS011;32476;50.002;11.854;2024-02-21T15:35:38;7.57;;;2.20;;
46729;SDS011;32476;50.002;11.854;2024-02-21T15:38:04;7.43;;;2.50;;
46729;SDS011;32476;50.002;11.854;2024-02-21T15:40:31;8.47;;;2.23;;
46729;SDS011;32476;50.002;11.854;2024-02-21T15:43:01;8.63;;;2.53;;
46729;SDS011;32476;50.002;11.854;2024-02-21T15:45:28;5.17;;;2.30;;
46729;SDS011;32476;50.002;11.854;2024-02-21T15:47:55;5.73;;;2.13;;
46729;SDS011;32476;50.002;11.854;2024-02-21T15:50:21;8.57;;;2.67;;
46729;SDS011;32476;50.002;11.854;2024-02-21T15:52:47;9.17;;;3.40;;
46729;SDS011;32476;50.002;11.854;2024-02-21T15:55:15;8.80;;;3.47;;
46729;SDS011;32476;50.002;11.854;2024-02-21T15:57:43;9.63;;;2.80;;
46729;SDS011;32476;50.002;11.854;2024-02-21T16:00:09;11.03;;;2.57;;
46729;SDS011;32476;50.002;11.854;2024-02-21T16:02:39;10.67;;;2.97;;
46729;SDS011;32476;50.002;11.854;2024-02-21T16:05:09;8.67;;;3.40;;
46729;SDS011;32476;50.002;11.854;2024-02-21T16:07:39;6.60;;;2.70;;
46729;SDS011;32476;50.002;11.854;2024-02-21T16:10:07;6.70;;;2.33;;
46729;SDS011;32476;50.002;11.854;2024-02-21T16:12:34;9.30;;;2.63;;
46729;SDS011;32476;50.002;11.854;2024-02-21T16:15:00;5.73;;;2.47;;
46729;SDS011;32476;50.002;11.854;2024-02-21T16:17:27;9.60;;;2.10;;
46729;SDS011;32476;50.002;11.854;2024-02-21T16:19:53;10.17;;;2.23;;
46729;SDS011;32476;50.002;11.854;2024-02-21T16:22:19;4.40;;;1.70;;
46729;SDS011;32476;50.002;11.854;2024-02-21T16:24:48;6.63;;;1.70;;
46729;SDS011;32476;50.002;11.854;2024-02-21T16:27:14;4.53;;;1.87;;
46729;SDS011;32476;50.002;11.854;2024-02-21T16:29:40;8.07;;;2.23;;
46729;SDS011;32476;50.002;11.854;2024-02-21T16:32:08;8.47;;;2.73;;
46729;SDS011;32476;50.002;11.854;2024-02-21T16:34:34;9.77;;;2.47;;
46729;SDS011;32476;50.002;11.854;2024-02-21T16:37:00;8.57;;;2.10;;
46729;SDS011;32476;50.002;11.854;2024-02-21T16:39:27;9.10;;;2.07;;
46729;SDS011;32476;50.002;11.854;2024-02-21T16:41:53;6.63;;;2.20;;
46729;SDS011;32476;50.002;11.854;2024-02-21T16:44:25;6.43;;;2.33;;
46729;SDS011;32476;50.002;11.854;2024-02-21T16:46:53;6.43;;;2.23;;
46729;SDS011;32476;50.002;11.854;2024-02-21T16:49:19;8.70;;;2.17;;
46729;SDS011;32476;50.002;11.854;2024-02-21T16:51:45;5.90;;;2.27;;
46729;SDS011;32476;50.002;11.854;2024-02-21T16:54:12;6.63;;;1.77;;
46729;SDS011;32476;50.002;11.854;2024-02-21T16:56:38;7.80;;;2.00;;
46729;SDS011;32476;50.002;11.854;2024-02-21T16:59:05;8.90;;;1.83;;
46729;SDS011;32476;50.002;11.854;2024-02-21T17:01:35;6.17;;;2.03;;
46729;SDS011;32476;50.002;11.854;2024-02-21T17:04:04;7.10;;;1.93;;
46729;SDS011;32476;50.002;11.854;2024-02-21T17:06:33;9.37;;;2.60;;
46729;SDS011;32476;50.002;11.854;2024-02-21T17:09:00;10.73;;;2.70;;
46729;SDS011;32476;50.002;11.854;2024-02-21T17:11:27;7.33;;;2.50;;
46729;SDS011;32476;50.002;11.854;2024-02-21T17:13:54;7.57;;;2.77;;
46729;SDS011;32476;50.002;11.854;2024-02-21T17:16:20;8.27;;;2.70;;
46729;SDS011;32476;50.002;11.854;2024-02-21T17:18:46;10.47;;;2.77;;
46729;SDS011;32476;50.002;11.854;2024-02-21T17:21:14;8.73;;;2.80;;
46729;SDS011;32476;50.002;11.854;2024-02-21T17:23:40;11.70;;;3.43;;
46729;SDS011;32476;50.002;11.854;2024-02-21T17:26:06;8.33;;;3.03;;
46729;SDS011;32476;50.002;11.854;2024-02-21T17:28:33;10.50;;;3.13;;
46729;SDS011;32476;50.002;11.854;2024-02-21T17:30:59;13.70;;;6.43;;
46729;SDS011;32476;50.002;11.854;2024-02-21T17:33:26;11.57;;;4.63;;
46729;SDS011;32476;50.002;11.854;2024-02-21T17:35:53;10.00;;;5.93;;
46729;SDS011;32476;50.002;11.854;2024-02-21T17:38:19;10.00;;;3.90;;
46729;SDS011;32476;50.002;11.854;2024-02-21T17:40:46;6.23;;;3.23;;
46729;SDS011;32476;50.002;11.854;2024-02-21T17:43:16;11.50;;;5.90;;
46729;SDS011;32476;50.002;11.854;2024-02-21T17:45:42;9.67;;;5.83;;
46729;SDS011;32476;50.002;11.854;2024-02-21T17:48:08;7.53;;;4.57;;
46729;SDS011;32476;50.002;11.854;2024-02-21T17:50:35;9.73;;;4.03;;
46729;SDS011;32476;50.002;11.854;2024-02-21T17:53:01;9.27;;;4.73;;
46729;SDS011;32476;50.002;11.854;2024-02-21T17:55:28;6.33;;;2.80;;
46729;SDS011;32476;50.002;11.854;2024-02-21T17:57:56;6.90;;;2.60;;
46729;SDS011;32476;50.002;11.854;2024-02-21T18:00:22;9.67;;;3.07;;
46729;SDS011;32476;50.002;11.854;2024-02-21T18:02:50;5.63;;;2.30;;
46729;SDS011;32476;50.002;11.854;2024-02-21T18:05:17;10.00;;;3.57;;
46729;SDS011;32476;50.002;11.854;2024-02-21T18:07:43;8.50;;;3.10;;
46729;SDS011;32476;50.002;11.854;2024-02-21T18:10:09;5.70;;;2.20;;
46729;SDS011;32476;50.002;11.854;2024-02-21T18:12:36;8.40;;;2.00;;
46729;SDS011;32476;50.002;11.854;2024-02-21T18:15:03;10.53;;;4.93;;
46729;SDS011;32476;50.002;11.854;2024-02-21T18:17:30;8.93;;;2.57;;
46729;SDS011;32476;50.002;11.854;2024-02-21T18:19:59;5.57;;;2.43;;
46729;SDS011;32476;50.002;11.854;2024-02-21T18:22:28;7.70;;;2.53;;
46729;SDS011;32476;50.002;11.854;2024-02-21T18:24:54;9.97;;;2.23;;
46729;SDS011;32476;50.002;11.854;2024-02-21T18:27:21;10.23;;;3.27;;
46729;SDS011;32476;50.002;11.854;2024-02-21T18:29:48;18.30;;;7.20;;
46729;SDS011;32476;50.002;11.854;2024-02-21T18:32:14;13.40;;;5.93;;
46729;SDS011;32476;50.002;11.854;2024-02-21T18:34:41;17.93;;;7.63;;
46729;SDS011;32476;50.002;11.854;2024-02-21T18:37:07;6.90;;;3.40;;
46729;SDS011;32476;50.002;11.854;2024-02-21T18:39:35;8.67;;;3.07;;
46729;SDS011;32476;50.002;11.854;2024-02-21T18:42:02;9.47;;;3.40;;
46729;SDS011;32476;50.002;11.854;2024-02-21T18:44:29;7.57;;;3.57;;
46729;SDS011;32476;50.002;11.854;2024-02-21T18:46:54;6.23;;;3.10;;
46729;SDS011;32476;50.002;11.854;2024-02-21T18:49:23;7.87;;;3.23;;
46729;SDS011;32476;50.002;11.854;2024-02-21T18:51:49;9.67;;;3.73;;
46729;SDS011;32476;50.002;11.854;2024-02-21T18:54:15;17.37;;;5.60;;
46729;SDS011;32476;50.002;11.854;2024-02-21T18:56:46;30.10;;;11.90;;
46729;SDS011;32476;50.002;11.854;2024-02-21T18:59:13;59.10;;;25.07;;
46729;SDS011;32476;50.002;11.854;2024-02-21T19:01:44;24.50;;;11.03;;
46729;SDS011;32476;50.002;11.854;2024-02-21T19:04:11;26.87;;;10.47;;
46729;SDS011;32476;50.002;11.854;2024-02-21T19:06:37;25.07;;;10.80;;
46729;SDS011;32476;50.002;11.854;2024-02-21T19:09:03;28.67;;;12.60;;
46729;SDS011;32476;50.002;11.854;2024-02-21T19:11:33;17.13;;;9.47;;
46729;SDS011;32476;50.002;11.854;2024-02-21T19:13:59;21.43;;;9.33;;
46729;SDS011;32476;50.002;11.854;2024-02-21T19:16:26;10.77;;;5.90;;
46729;SDS011;32476;50.002;11.854;2024-02-21T19:18:55;11.63;;;5.70;;
46729;SDS011;32476;50.002;11.854;2024-02-21T19:21:21;12.70;;;5.47;;
46729;SDS011;32476;50.002;11.854;2024-02-21T19:23:47;10.93;;;4.70;;
46729;SDS011;32476;50.002;11.854;2024-02-21T19:26:14;9.57;;;2.63;;
46729;SDS011;32476;50.002;11.854;2024-02-21T19:28:40;3.67;;;2.23;;
46729;SDS011;32476;50.002;11.854;2024-02-21T19:31:06;7.17;;;2.40;;
46729;SDS011;32476;50.002;11.854;2024-02-21T19:33:34;8.83;;;2.83;;
46729;SDS011;32476;50.002;11.854;2024-02-21T19:36:00;6.67;;;3.00;;
46729;SDS011;32476;50.002;11.854;2024-02-21T19:38:27;5.43;;;2.60;;
46729;SDS011;32476;50.002;11.854;2024-02-21T19:40:54;8.97;;;2.10;;
46729;SDS011;32476;50.002;11.854;2024-02-21T19:43:21;4.80;;;2.50;;
46729;SDS011;32476;50.002;11.854;2024-02-21T19:45:48;4.57;;;2.67;;
46729;SDS011;32476;50.002;11.854;2024-02-21T19:48:15;8.10;;;2.43;;
46729;SDS011;32476;50.002;11.854;2024-02-21T19:50:43;6.77;;;2.53;;
46729;SDS011;32476;50.002;11.854;2024-02-21T19:53:09;4.50;;;2.23;;
46729;SDS011;32476;50.002;11.854;2024-02-21T19:55:37;6.27;;;2.70;;
46729;SDS011;32476;50.002;11.854;2024-02-21T19:58:03;4.17;;;2.33;;
46729;SDS011;32476;50.002;11.854;2024-02-21T20:00:30;6.83;;;2.20;;
46729;SDS011;32476;50.002;11.854;2024-02-21T20:02:58;7.37;;;2.40;;
46729;SDS011;32476;50.002;11.854;2024-02-21T20:05:24;6.13;;;2.53;;
46729;SDS011;32476;50.002;11.854;2024-02-21T20:07:50;6.10;;;2.63;;
46729;SDS011;32476;50.002;11.854;2024-02-21T20:10:18;8.80;;;4.07;;
46729;SDS011;32476;50.002;11.854;2024-02-21T20:12:45;10.07;;;3.60;;
46729;SDS011;32476;50.002;11.854;2024-02-21T20:15:11;5.33;;;3.03;;
46729;SDS011;32476;50.002;11.854;2024-02-21T20:17:41;5.63;;;2.67;;
46729;SDS011;32476;50.002;11.854;2024-02-21T20:20:11;5.20;;;2.87;;
46729;SDS011;32476;50.002;11.854;2024-02-21T20:22:40;5.73;;;2.60;;
46729;SDS011;32476;50.002;11.854;2024-02-21T20:25:10;6.87;;;2.70;;
46729;SDS011;32476;50.002;11.854;2024-02-21T20:27:36;8.40;;;2.50;;
46729;SDS011;32476;50.002;11.854;2024-02-21T20:30:04;8.13;;;2.70;;
46729;SDS011;32476;50.002;11.854;2024-02-21T20:32:31;6.87;;;3.37;;
46729;SDS011;32476;50.002;11.854;2024-02-21T20:34:57;7.03;;;2.87;;
46729;SDS011;32476;50.002;11.854;2024-02-21T20:37:24;19.07;;;6.33;;
46729;SDS011;32476;50.002;11.854;2024-02-21T20:39:50;7.27;;;3.93;;
46729;SDS011;32476;50.002;11.854;2024-02-21T20:42:16;7.57;;;4.77;;
46729;SDS011;32476;50.002;11.854;2024-02-21T20:44:45;8.47;;;3.57;;
46729;SDS011;32476;50.002;11.854;2024-02-21T20:47:11;6.63;;;3.10;;
46729;SDS011;32476;50.002;11.854;2024-02-21T20:49:36;4.90;;;3.37;;
46729;SDS011;32476;50.002;11.854;2024-02-21T20:52:04;9.93;;;5.73;;
46729;SDS011;32476;50.002;11.854;2024-02-21T20:54:30;7.63;;;3.20;;